Terminal Aerodrome Forecast
Issued by NWS

Home | Current Version | Previous Version | Text Only | Print | Product List | Glossary On
Versions: 1 2 3 4 5 6 7 8 9 10 11 12 13 14
881
FTUS45 KTFX 301720
TAFHLN
TAF
KHLN 301720Z 3018/0118 27009KT P6SM BKN100
     FM301900 28018G26KT P6SM VCSH SCT050 BKN080
      TEMPO 3020/3024 BKN050
     FM010200 28008KT P6SM SCT080 BKN120
     FM010600 27006KT P6SM SCT120
     FM011000 26008KT P6SM BKN070=

USA.gov is the U.S. government's official web portal to all federal, state and local government web resources and services.